Time;durP1;ratioP1;P1;durP2;ratioP2;P2;SDS_P1;SDS_P2;PMS_P1;PMS_P2;Temp;Humidity;BMP_temperature;BMP_pressure;BME280_temperature;BME280_humidity;BME280_pressure;Samples;Min_cycle;Max_cycle;Signal;HPM_P1;HPM_P2
2022/12/10 00:01:09;;;;;;;33.53;16.33;;;;;;;5.84;100.00;99913.28;123834;1099;104175;-81
2022/12/10 00:03:40;;;;;;;37.30;15.63;;;;;;;5.86;100.00;99913.35;123910;1099;104650;-81
2022/12/10 00:06:14;;;;;;;33.20;16.00;;;;;;;5.88;100.00;99914.34;123811;1099;104297;-80
2022/12/10 00:08:45;;;;;;;34.80;16.17;;;;;;;5.89;100.00;99900.47;123887;1099;104229;-82
2022/12/10 00:11:18;;;;;;;37.43;16.33;;;;;;;5.89;100.00;99903.99;124104;1099;104363;-82
2022/12/10 00:13:50;;;;;;;33.70;15.87;;;;;;;5.91;100.00;99894.52;123886;1099;104210;-82
2022/12/10 00:16:23;;;;;;;41.23;15.90;;;;;;;5.91;100.00;99896.25;124142;1099;104220;-81
2022/12/10 00:18:55;;;;;;;34.35;15.25;;;;;;;5.94;100.00;99894.66;123993;1099;104240;-81
2022/12/10 00:21:29;;;;;;;40.37;15.23;;;;;;;5.96;100.00;99904.27;123995;1099;104306;-81
2022/12/10 00:23:59;;;;;;;;;;;;;;;5.96;100.00;99892.13;123977;1099;104354;-81
2022/12/10 00:26:32;;;;;;;38.80;16.17;;;;;;;5.98;100.00;99894.83;123754;1102;104230;-81
2022/12/10 00:29:06;;;;;;;42.33;15.67;;;;;;;5.98;100.00;99885.30;124004;1099;104246;-81
2022/12/10 00:31:38;;;;;;;40.13;16.93;;;;;;;6.01;100.00;99879.34;124131;1099;104274;-80
2022/12/10 00:34:11;;;;;;;38.67;14.73;;;;;;;6.02;100.00;99866.39;124079;1099;104303;-82
2022/12/10 00:36:44;;;;;;;33.73;15.40;;;;;;;6.04;100.00;99863.84;124129;1099;104500;-79
2022/12/10 00:39:18;;;;;;;37.87;17.57;;;;;;;6.04;100.00;99856.91;123839;1099;104245;-81
2022/12/10 00:41:50;;;;;;;36.83;16.27;;;;;;;6.07;100.00;99858.77;123873;1099;104255;-81
2022/12/10 00:44:21;;;;;;;39.53;16.43;;;;;;;6.09;100.00;99855.42;124072;1099;104290;-81
2022/12/10 00:46:52;;;;;;;40.35;16.70;;;;;;;6.11;100.00;99851.16;124130;1099;104354;-80
2022/12/10 00:49:24;;;;;;;37.27;16.50;;;;;;;6.13;100.00;99842.53;123876;1099;104233;-81
2022/12/10 00:51:55;;;;;;;39.70;16.53;;;;;;;6.15;100.00;99846.08;123975;1099;104358;-81
2022/12/10 00:54:26;;;;;;;36.90;15.70;;;;;;;6.16;100.00;99840.05;124022;1099;104360;-80
2022/12/10 00:56:58;;;;;;;42.20;17.17;;;;;;;6.17;100.00;99836.61;124128;1099;104220;-81
2022/12/10 00:59:29;;;;;;;31.63;15.80;;;;;;;6.18;100.00;99830.58;124290;1099;104211;-81
2022/12/10 01:02:00;;;;;;;37.83;17.80;;;;;;;6.19;100.00;99827.16;124079;1099;104372;-80
2022/12/10 01:04:32;;;;;;;39.60;16.70;;;;;;;6.21;100.00;99825.50;123923;1099;104392;-81
2022/12/10 01:07:03;;;;;;;37.80;16.47;;;;;;;6.23;100.00;99816.02;123850;1099;104274;-80
2022/12/10 01:09:34;;;;;;;39.77;16.20;;;;;;;6.26;100.00;99813.55;123722;1099;104370;-81
2022/12/10 01:12:06;;;;;;;41.25;15.95;;;;;;;6.27;100.00;99810.13;124141;1099;104239;-81
2022/12/10 01:14:38;;;;;;;33.83;15.83;;;;;;;6.30;100.00;99799.83;124004;1099;104351;-81
2022/12/10 01:17:09;;;;;;;42.40;17.25;;;;;;;6.31;100.00;99796.41;124025;1099;104342;-81
2022/12/10 01:19:40;;;;;;;29.83;14.53;;;;;;;6.33;100.00;99791.23;124004;1099;104396;-81
2022/12/10 01:22:11;;;;;;;37.80;16.53;;;;;;;6.35;100.00;99793.09;123916;1099;105479;-81
2022/12/10 01:24:42;;;;;;;41.80;16.40;;;;;;;6.36;100.00;99789.66;123977;1099;104225;-81
2022/12/10 01:27:13;;;;;;;40.37;15.83;;;;;;;6.37;100.00;99788.81;123638;1099;104315;-82
2022/12/10 01:29:45;;;;;;;39.50;16.97;;;;;;;6.40;100.00;99790.67;123765;1099;104350;-81
2022/12/10 01:32:16;;;;;;;49.57;16.03;;;;;;;6.43;100.00;99791.67;123744;1099;104351;-80
2022/12/10 01:34:47;;;;;;;44.03;16.50;;;;;;;6.45;100.00;99783.92;124034;1099;104226;-81
2022/12/10 01:37:18;;;;;;;36.53;15.07;;;;;;;6.47;100.00;99788.37;123796;1099;104274;-80
2022/12/10 01:39:50;;;;;;;41.17;16.00;;;;;;;6.48;100.00;99774.53;123996;1099;104246;-81
2022/12/10 01:42:23;;;;;;;37.65;15.78;;;;;;;6.51;100.00;99767.66;123748;1099;104359;-81
2022/12/10 01:45:10;;;;;;;37.57;14.83;;;;;;;6.52;100.00;99765.11;123835;1099;104304;-82
2022/12/10 01:47:41;;;;;;;42.10;14.83;;;;;;;6.53;100.00;99768.59;123943;1099;104299;-81
2022/12/10 01:50:12;;;;;;;38.47;16.27;;;;;;;6.55;100.00;99756.53;123894;1098;104389;-81
2022/12/10 01:52:43;;;;;;;44.80;15.60;;;;;;;6.56;100.00;99753.08;123827;1098;104312;-81
2022/12/10 01:55:39;;;;;;;36.33;15.50;;;;;;;6.58;100.00;99754.05;123808;1099;104745;-80
2022/12/10 01:58:10;;;;;;;39.10;15.30;;;;;;;6.59;100.00;99750.59;123820;1099;104358;-80
2022/12/10 02:00:52;;;;;;;37.73;15.37;;;;;;;6.60;100.00;99749.77;124067;1099;104277;-81
2022/12/10 02:03:44;;;;;;;37.77;15.87;;;;;;;6.62;100.00;99735.07;123856;1099;104297;-80
2022/12/10 02:06:26;;;;;;;42.07;17.27;;;;;;;6.64;100.00;99744.74;123785;1099;104379;-81
2022/12/10 02:09:09;;;;;;;39.17;15.27;;;;;;;6.66;100.00;99748.29;124004;1099;104274;-81
2022/12/10 02:11:48;;;;;;;41.37;15.20;;;;;;;6.69;100.00;99739.71;123773;1099;104446;-80
2022/12/10 02:14:27;;;;;;;40.60;15.80;;;;;;;6.72;100.00;99736.34;123899;1099;104242;-80
2022/12/10 02:17:01;;;;;;;34.67;15.90;;;;;;;6.73;100.00;99728.58;123843;1100;105775;-81
2022/12/10 02:19:47;;;;;;;44.77;16.33;;;;;;;6.75;100.00;99734.73;123909;1099;104348;-81
2022/12/10 02:22:21;;;;;;;34.43;15.93;;;;;;;6.78;100.00;99721.81;124017;1099;104341;-81
2022/12/10 02:24:55;;;;;;;45.27;17.17;;;;;;;6.81;100.00;99718.45;123947;1099;104319;-80
2022/12/10 02:27:34;;;;;;;42.07;16.63;;;;;;;6.81;100.00;99706.28;123728;1099;104347;-80
2022/12/10 02:30:06;;;;;;;34.97;15.83;;;;;;;6.83;100.00;99706.34;123820;1099;104274;-80
2022/12/10 02:32:41;;;;;;;42.37;17.40;;;;;;;6.83;100.00;99699.40;123940;1099;104383;-80
2022/12/10 02:35:18;;;;;;;67.97;17.93;;;;;;;6.84;100.00;99689.88;123787;1102;104369;-80
2022/12/10 02:37:54;;;;;;;42.40;16.73;;;;;;;6.83;100.00;99694.19;123748;1099;104242;-80
2022/12/10 02:40:30;;;;;;;53.27;18.10;;;;;;;6.83;100.00;99688.09;123766;1102;104278;-80
2022/12/10 02:43:02;;;;;;;50.57;17.73;;;;;;;6.81;100.00;99685.42;123811;1099;104369;-80
2022/12/10 02:45:35;;;;;;;51.50;17.73;;;;;;;6.82;100.00;99696.73;124017;1099;104344;-80
2022/12/10 02:48:07;;;;;;;52.50;18.17;;;;;;;6.81;100.00;99682.81;123937;1099;104293;-80
2022/12/10 02:50:42;;;;;;;51.10;16.53;;;;;;;6.81;100.00;99682.81;123991;1099;104280;-81
2022/12/10 02:53:14;;;;;;;64.60;17.87;;;;;;;6.81;100.00;99679.33;123922;1099;104222;-81
2022/12/10 02:56:03;;;;;;;57.45;18.20;;;;;;;6.82;100.00;99675.88;123739;1099;104313;-80
2022/12/10 02:58:44;;;;;;;60.97;18.50;;;;;;;6.83;100.00;99667.23;123893;1099;104376;-81
2022/12/10 03:01:24;;;;;;;59.10;18.25;;;;;;;6.85;100.00;99668.16;123998;1099;104322;-80
2022/12/10 03:04:01;;;;;;;56.60;17.60;;;;;;;6.86;100.00;99666.44;123860;1099;104257;-81
2022/12/10 03:06:39;;;;;;;50.23;17.87;;;;;;;6.87;100.00;99668.22;123830;1099;104309;-81
2022/12/10 03:09:14;;;;;;;64.50;18.80;;;;;;;6.87;100.00;99663.00;124014;1099;104271;-81
2022/12/10 03:11:48;;;;;;;54.00;17.57;;;;;;;6.89;100.00;99653.51;123845;1099;104287;-80
2022/12/10 03:14:21;;;;;;;;;;;;;;;6.89;100.00;99645.68;123700;1099;104245;-80
2022/12/10 03:16:55;;;;;;;43.07;16.63;;;;;;;6.91;100.00;99646.65;123737;1099;104245;-80
2022/12/10 03:19:32;;;;;;;46.43;17.07;;;;;;;6.91;100.00;99644.92;123695;1099;104348;-80
2022/12/10 03:22:05;;;;;;;66.23;17.23;;;;;;;6.94;100.00;99651.98;124075;1098;104392;-80
2022/12/10 03:24:37;;;;;;;61.63;17.70;;;;;;;6.95;100.00;99636.39;123803;1099;104198;-80
2022/12/10 03:27:10;;;;;;;52.67;15.90;;;;;;;6.96;100.00;99637.27;124015;1099;104242;-80
2022/12/10 03:29:46;;;;;;;55.57;18.80;;;;;;;6.99;100.00;99629.55;123796;1099;104284;-80
2022/12/10 03:32:21;;;;;;;92.60;17.45;;;;;;;7.00;100.00;99632.21;124068;1099;104338;-80
2022/12/10 03:34:56;;;;;;;59.07;17.50;;;;;;;7.00;100.00;99629.61;124051;1099;104312;-80
2022/12/10 03:37:29;;;;;;;83.23;17.40;;;;;;;7.02;100.00;99645.31;123998;1099;104367;-81
2022/12/10 03:40:01;;;;;;;86.10;17.27;;;;;;;7.03;100.00;99634.05;123939;1099;104310;-80
2022/12/10 03:42:32;;;;;;;73.07;18.63;;;;;;;7.05;100.00;99621.95;124055;1098;104335;-81
2022/12/10 03:45:04;;;;;;;69.57;17.90;;;;;;;7.06;100.00;99615.00;123954;1099;104242;-80
2022/12/10 03:47:35;;;;;;;85.90;17.93;;;;;;;7.06;100.00;99610.69;123993;1099;104238;-79
2022/12/10 03:50:08;;;;;;;56.10;18.87;;;;;;;7.09;100.00;99608.19;123951;1099;104306;-80
2022/12/10 03:52:39;;;;;;;69.57;16.97;;;;;;;7.11;100.00;99600.41;123971;1098;104862;-81
2022/12/10 03:55:11;;;;;;;72.70;18.60;;;;;;;7.12;100.00;99594.34;124039;1099;105610;-81
2022/12/10 03:57:42;;;;;;;58.30;17.30;;;;;;;7.13;100.00;99601.34;123799;1099;104251;-82
2022/12/10 04:00:15;;;;;;;70.70;16.77;;;;;;;7.14;100.00;99600.52;124052;1098;104382;-81
2022/12/10 04:02:46;;;;;;;61.80;16.90;;;;;;;7.16;100.00;99610.16;123995;1098;104373;-81
2022/12/10 04:05:18;;;;;;;81.65;17.25;;;;;;;7.17;100.00;99605.85;123969;1099;104335;-81
2022/12/10 04:07:49;;;;;;;75.87;17.87;;;;;;;7.17;100.00;99598.02;124046;1098;104289;-81
2022/12/10 04:10:20;;;;;;;61.90;17.20;;;;;;;7.18;100.00;99592.86;123989;1099;104281;-80
2022/12/10 04:18:29;;;;;;;79.33;18.00;;;;;;;7.20;100.00;99588.57;123809;1099;104258;-80
2022/12/10 04:26:53;;;;;;;52.77;16.87;;;;;;;7.24;100.00;99586.94;123911;1099;104264;-80
2022/12/10 04:29:27;;;;;;;60.33;16.73;;;;;;;7.23;100.00;99577.36;124001;1099;104312;-81
2022/12/10 04:31:59;;;;;;;67.27;18.07;;;;;;;7.24;100.00;99571.28;124036;1099;104264;-80
2022/12/10 04:34:30;;;;;;;59.70;16.55;;;;;;;7.27;100.00;99565.30;124095;1099;104216;-80
2022/12/10 04:37:02;;;;;;;60.27;18.00;;;;;;;7.27;100.00;99566.17;123978;1099;104347;-81
2022/12/10 04:39:33;;;;;;;46.67;16.63;;;;;;;7.27;100.00;99549.64;123757;1099;104252;-80
2022/12/10 04:42:05;;;;;;;79.47;18.73;;;;;;;7.26;100.00;99548.77;123962;1099;104881;-80
2022/12/10 04:44:36;;;;;;;59.83;18.07;;;;;;;7.29;100.00;99537.52;123874;1099;104763;-80
2022/12/10 04:47:10;;;;;;;64.03;18.20;;;;;;;7.28;100.00;99530.55;123701;1099;104300;-81
2022/12/10 04:49:41;;;;;;;62.13;17.90;;;;;;;7.28;100.00;99531.42;123763;1099;104309;-81
2022/12/10 04:52:14;;;;;;;75.23;18.20;;;;;;;7.29;100.00;99533.20;123778;1099;104638;-81
2022/12/10 04:54:46;;;;;;;85.80;19.10;;;;;;;7.31;100.00;99530.66;124116;1099;104300;-80
2022/12/10 04:57:17;;;;;;;115.17;19.83;;;;;;;7.33;100.00;99528.97;123737;1099;104347;-80
2022/12/10 04:59:48;;;;;;;64.90;18.40;;;;;;;7.34;100.00;99529.02;123867;1099;102087;-80
2022/12/10 05:02:19;;;;;;;61.77;19.57;;;;;;;7.35;100.00;99522.98;123759;1099;104204;-80
2022/12/10 05:04:52;;;;;;;59.93;19.07;;;;;;;7.37;100.00;99521.30;123785;1099;104297;-81
2022/12/10 05:07:23;;;;;;;69.37;18.63;;;;;;;7.39;100.00;99508.30;123870;1099;104195;-81
2022/12/10 05:09:54;;;;;;;56.70;19.50;;;;;;;7.42;100.00;99515.31;123716;1099;104379;-81
2022/12/10 05:12:25;;;;;;;54.07;18.53;;;;;;;7.45;100.00;99508.49;123970;1099;104754;-80
2022/12/10 05:14:56;;;;;;;46.47;20.03;;;;;;;7.46;100.00;99499.80;124009;1099;104710;-81
2022/12/10 05:17:27;;;;;;;58.60;19.17;;;;;;;7.48;100.00;99503.38;123943;1099;104271;-81
2022/12/10 05:20:00;;;;;;;51.17;19.80;;;;;;;7.50;100.00;99517.34;123844;1099;104332;-81
2022/12/10 05:25:20;;;;;;;63.10;19.37;;;;;;;7.55;100.00;99509.66;123998;1099;104271;-81
2022/12/10 05:27:52;;;;;;;57.67;20.20;;;;;;;7.55;100.00;99512.27;123766;1099;104290;-80
2022/12/10 05:30:23;;;;;;;59.27;19.53;;;;;;;7.58;100.00;99507.16;123740;1099;104275;-80
2022/12/10 05:32:54;;;;;;;68.93;20.60;;;;;;;7.59;100.00;99513.25;123878;1099;104514;-81
2022/12/10 05:35:25;;;;;;;64.77;20.13;;;;;;;7.60;100.00;99518.52;123772;1099;104249;-81
2022/12/10 05:37:56;;;;;;;81.77;27.17;;;;;;;7.62;100.00;99515.95;124030;1099;104280;-80
2022/12/10 05:40:27;;;;;;;59.17;21.70;;;;;;;7.61;100.00;99515.08;123881;1098;104325;-80
2022/12/10 05:42:59;;;;;;;56.05;20.60;;;;;;;7.63;100.00;99521.23;123997;1099;104261;-80
2022/12/10 05:45:32;;;;;;;73.10;22.53;;;;;;;7.65;100.00;99518.66;123961;1098;104441;-81
2022/12/10 05:48:03;;;;;;;60.93;22.60;;;;;;;7.66;100.00;99523.06;124010;1099;104271;-80
2022/12/10 05:50:35;;;;;;;60.70;24.10;;;;;;;7.67;100.00;99515.28;123922;1099;104284;-81
2022/12/10 05:53:06;;;;;;;77.03;23.93;;;;;;;7.70;100.00;99514.50;123966;1099;104329;-81
2022/12/10 05:55:37;;;;;;;48.20;22.87;;;;;;;7.70;100.00;99509.27;124103;1099;104240;-81
2022/12/10 05:58:08;;;;;;;71.40;23.67;;;;;;;7.70;100.00;99510.16;123960;1099;104159;-80
2022/12/10 06:00:41;;;;;;;65.37;24.30;;;;;;;7.75;100.00;99512.91;123875;1099;104405;-80
2022/12/10 06:03:12;;;;;;;63.67;26.07;;;;;;;7.76;100.00;99511.17;124094;1099;104434;-81
2022/12/10 06:05:43;;;;;;;64.60;25.60;;;;;;;7.78;100.00;99515.61;123975;1098;104265;-80
2022/12/10 06:08:15;;;;;;;54.93;23.50;;;;;;;7.82;100.00;99509.66;123859;1099;104650;-80
2022/12/10 06:10:46;;;;;;;101.07;24.53;;;;;;;7.86;100.00;99511.50;124017;1099;104363;-80
2022/12/10 06:13:17;;;;;;;95.57;24.13;;;;;;;7.88;100.00;99514.16;123924;1099;104389;-80
2022/12/10 06:15:48;;;;;;;78.23;27.37;;;;;;;7.89;100.00;99506.37;123978;1099;104197;-80
2022/12/10 06:18:20;;;;;;;78.35;25.35;;;;;;;7.92;100.00;99500.37;123942;1099;104248;-80
2022/12/10 06:20:51;;;;;;;74.70;23.97;;;;;;;7.96;100.00;99496.98;123865;1099;104230;-81
2022/12/10 06:23:23;;;;;;;93.07;24.50;;;;;;;7.98;100.00;99492.72;124020;1098;104275;-80
2022/12/10 06:25:54;;;;;;;80.07;25.40;;;;;;;8.00;100.00;99496.25;123913;1099;104344;-80
2022/12/10 06:28:25;;;;;;;76.97;25.00;;;;;;;8.03;100.00;99498.08;123948;1099;104281;-80
2022/12/10 06:30:58;;;;;;;80.30;24.70;;;;;;;8.06;100.00;99490.33;123978;1099;104248;-80
2022/12/10 06:33:29;;;;;;;52.80;25.07;;;;;;;8.09;100.00;99475.63;123924;1099;104319;-80
2022/12/10 06:36:00;;;;;;;66.80;27.33;;;;;;;8.13;100.00;99471.36;123985;1099;104345;-81
2022/12/10 06:38:32;;;;;;;57.50;27.13;;;;;;;8.18;100.00;99471.49;123867;1099;106119;-81
2022/12/10 06:41:05;;;;;;;56.20;27.83;;;;;;;8.21;100.00;99477.72;123802;1099;104321;-80
2022/12/10 06:43:36;;;;;;;54.53;28.00;;;;;;;8.26;100.00;99475.23;123879;1099;104306;-81
2022/12/10 06:46:09;;;;;;;62.10;28.40;;;;;;;8.30;100.00;99470.97;124081;1099;104303;-81
2022/12/10 06:48:41;;;;;;;58.10;28.53;;;;;;;8.33;100.00;99464.09;123858;1099;104233;-81
2022/12/10 06:51:14;;;;;;;58.13;27.93;;;;;;;8.38;100.00;99464.22;123937;1099;104332;-81
2022/12/10 06:53:46;;;;;;;53.67;26.77;;;;;;;8.43;100.00;99468.78;124086;1099;104280;-80
2022/12/10 06:56:20;;;;;;;51.97;26.80;;;;;;;8.49;100.00;99472.40;123780;1099;104389;-80
2022/12/10 06:58:51;;;;;;;53.02;27.35;;;;;;;8.52;100.00;99468.13;123845;1099;104690;-80
2022/12/10 07:01:25;;;;;;;47.53;24.80;;;;;;;8.58;100.00;99467.42;124123;1099;104297;-80
2022/12/10 07:03:57;;;;;;;51.60;25.63;;;;;;;8.62;100.00;99472.78;123960;1099;104373;-81
2022/12/10 07:06:32;;;;;;;50.30;26.17;;;;;;;8.70;100.00;99469.49;124060;1099;104245;-81
2022/12/10 07:09:03;;;;;;;43.50;22.17;;;;;;;8.75;100.00;99460.03;123935;1099;104274;-81
2022/12/10 07:11:34;;;;;;;38.13;18.47;;;;;;;8.78;100.00;99474.06;124458;1098;104219;-80
2022/12/10 07:14:05;;;;;;;34.73;18.83;;;;;;;8.85;100.00;99471.61;124221;1099;104310;-81
2022/12/10 07:16:38;;;;;;;31.20;17.73;;;;;;;8.89;100.00;99473.47;124445;1099;104376;-81
2022/12/10 07:19:12;;;;;;;31.90;17.90;;;;;;;8.94;100.00;99464.91;124322;1099;104403;-81
2022/12/10 07:21:45;;;;;;;32.50;17.57;;;;;;;9.00;100.00;99464.16;124271;1099;104300;-79
2022/12/10 07:24:19;;;;;;;33.73;18.17;;;;;;;9.04;100.00;99462.49;124356;1099;104434;-79
2022/12/10 07:26:50;;;;;;;33.17;16.23;;;;;;;9.08;100.00;99459.12;124601;1098;104216;-80
2022/12/10 07:29:22;;;;;;;31.80;17.13;;;;;;;9.10;100.00;99467.88;123958;1099;104354;-79
2022/12/10 07:31:54;;;;;;;33.03;16.47;;;;;;;9.13;100.00;99467.95;124067;1099;104246;-80
2022/12/10 07:34:25;;;;;;;33.20;16.90;;;;;;;9.17;100.00;99465.45;124027;1099;104361;-80
2022/12/10 07:36:56;;;;;;;34.40;17.63;;;;;;;9.22;100.00;99462.08;124117;1099;104428;-80
2022/12/10 07:39:28;;;;;;;34.10;16.63;;;;;;;9.25;100.00;99472.63;124341;1099;104242;-80
2022/12/10 07:41:59;;;;;;;35.50;17.73;;;;;;;9.27;100.00;99465.69;123716;1099;104352;-80
2022/12/10 07:44:33;;;;;;;33.40;17.50;;;;;;;9.30;100.00;99466.66;123915;1099;104370;-80
2022/12/10 07:47:04;;;;;;;30.17;16.57;;;;;;;9.33;100.00;99463.22;124093;1099;104277;-80
2022/12/10 07:49:35;;;;;;;33.40;17.13;;;;;;;9.34;100.00;99452.78;124294;1099;104332;-81
2022/12/10 07:52:06;;;;;;;31.93;17.27;;;;;;;9.37;100.00;99456.34;124298;1099;104301;-80
2022/12/10 07:54:38;;;;;;;34.87;17.30;;;;;;;9.38;100.00;99458.09;124122;1099;104242;-80
2022/12/10 07:57:09;;;;;;;38.03;17.73;;;;;;;9.39;100.00;99454.63;124203;1099;104271;-80
2022/12/10 07:59:40;;;;;;;37.03;17.83;;;;;;;9.41;100.00;99458.16;124124;1099;104235;-80
2022/12/10 08:02:12;;;;;;;38.03;18.57;;;;;;;9.42;100.00;99458.20;123949;1099;104227;-80
2022/12/10 08:04:44;;;;;;;32.17;17.80;;;;;;;9.44;100.00;99455.62;124220;1099;104415;-80
2022/12/10 08:07:15;;;;;;;35.80;18.60;;;;;;;9.45;100.00;99455.66;123986;1099;104307;-80
2022/12/10 08:09:46;;;;;;;32.60;17.63;;;;;;;9.45;100.00;99454.78;124093;1098;104238;-80
2022/12/10 08:12:17;;;;;;;32.60;17.30;;;;;;;9.45;100.00;99444.30;124389;1099;104265;-78
2022/12/10 08:14:49;;;;;;;33.97;18.87;;;;;;;9.46;100.00;99435.61;124171;1099;104303;-81
2022/12/10 08:17:20;;;;;;;33.67;17.77;;;;;;;9.48;100.00;99441.76;124170;1099;104344;-81
2022/12/10 08:19:51;;;;;;;32.60;16.77;;;;;;;9.48;100.00;99441.76;123990;1099;104293;-80
2022/12/10 08:22:22;;;;;;;30.70;16.00;;;;;;;9.50;100.00;99447.91;124003;1099;104291;-80
2022/12/10 08:24:53;;;;;;;34.53;17.67;;;;;;;9.50;100.00;99442.67;124184;1099;104704;-80
2022/12/10 08:27:25;;;;;;;35.13;17.00;;;;;;;9.51;100.00;99444.45;124094;1099;104368;-80
2022/12/10 08:29:56;;;;;;;33.63;18.17;;;;;;;9.53;100.00;99433.14;124010;1099;105719;-81
2022/12/10 08:32:27;;;;;;;30.70;16.83;;;;;;;9.57;100.00;99438.45;124016;1099;104219;-81
2022/12/10 08:34:58;;;;;;;35.33;17.87;;;;;;;9.58;100.00;99429.75;124212;1099;104382;-81
2022/12/10 08:37:31;;;;;;;33.63;17.63;;;;;;;9.56;100.00;99423.60;123937;1099;104242;-81
2022/12/10 08:40:02;;;;;;;33.03;17.17;;;;;;;9.58;100.00;99437.61;124019;1099;104242;-81
2022/12/10 08:42:33;;;;;;;35.17;17.53;;;;;;;9.58;100.00;99417.53;124144;1099;104313;-81
2022/12/10 08:45:05;;;;;;;31.23;17.07;;;;;;;9.59;100.00;99421.05;124326;1099;104341;-81
2022/12/10 08:47:36;;;;;;;31.70;17.27;;;;;;;9.60;100.00;99409.70;124336;1099;104306;-81
2022/12/10 08:50:08;;;;;;;31.75;16.80;;;;;;;9.60;100.00;99421.09;124037;1099;104767;-81
2022/12/10 08:52:39;;;;;;;31.83;15.50;;;;;;;9.63;100.00;99415.02;124279;1099;104329;-80
2022/12/10 08:55:11;;;;;;;32.40;17.23;;;;;;;9.63;100.00;99409.77;124255;1099;104294;-81
2022/12/10 08:57:42;;;;;;;36.20;17.85;;;;;;;9.66;100.00;99407.22;124181;1099;104175;-78
2022/12/10 09:00:16;;;;;;;30.53;16.07;;;;;;;9.68;100.00;99400.30;124092;1099;104267;-80
2022/12/10 09:02:47;;;;;;;30.17;16.27;;;;;;;9.69;100.00;99397.72;124394;1099;104267;-80
2022/12/10 09:05:18;;;;;;;31.73;16.23;;;;;;;9.69;100.00;99388.95;124188;1099;104277;-80
2022/12/10 09:07:49;;;;;;;31.70;16.73;;;;;;;9.69;100.00;99400.34;124273;1099;104376;-79
2022/12/10 09:10:21;;;;;;;31.13;15.87;;;;;;;9.70;100.00;99395.97;124046;1099;104743;-80
2022/12/10 09:12:52;;;;;;;32.80;16.07;;;;;;;9.75;100.00;99388.21;124125;1099;104259;-80
2022/12/10 09:15:24;;;;;;;34.20;16.80;;;;;;;9.77;100.00;99395.27;124209;1099;104245;-79
2022/12/10 09:17:55;;;;;;;33.80;18.27;;;;;;;9.81;100.00;99390.96;124190;1099;104248;-80
2022/12/10 09:20:26;;;;;;;33.60;17.80;;;;;;;9.82;100.00;99388.38;124167;1099;104656;-80
2022/12/10 09:22:57;;;;;;;35.30;17.80;;;;;;;9.85;100.00;99382.33;124117;1099;104390;-80
2022/12/10 09:25:28;;;;;;;34.63;17.50;;;;;;;9.85;100.00;99382.33;124257;1099;104259;-79
2022/12/10 09:27:59;;;;;;;32.03;18.50;;;;;;;9.86;100.00;99376.21;124316;1099;104319;-80
2022/12/10 09:30:31;;;;;;;35.87;19.47;;;;;;;9.88;100.00;99371.91;124311;1099;104173;-80
2022/12/10 09:33:03;;;;;;;34.80;18.53;;;;;;;9.92;100.00;99370.22;124139;1099;117803;-81
2022/12/10 09:35:34;;;;;;;37.27;20.00;;;;;;;9.96;100.00;99369.44;124159;1099;104456;-80
2022/12/10 09:38:05;;;;;;;36.93;20.17;;;;;;;9.99;100.00;99364.27;124175;1099;104389;-82
2022/12/10 09:40:42;;;;;;;37.33;19.37;;;;;;;9.99;100.00;99353.78;124251;1099;104722;-79
2022/12/10 09:43:21;;;;;;;34.37;18.90;;;;;;;9.98;100.00;99360.73;124212;1099;104274;-80
2022/12/10 09:46:04;;;;;;;36.63;17.53;;;;;;;10.00;100.00;99358.14;124211;1099;104329;-79
2022/12/10 09:48:46;;;;;;;36.03;18.48;;;;;;;10.02;100.00;99348.56;124202;1099;104276;-80
2022/12/10 09:51:22;;;;;;;38.87;18.80;;;;;;;10.07;100.00;99341.70;124128;1099;104242;-80
2022/12/10 09:53:58;;;;;;;33.50;17.20;;;;;;;10.12;100.00;99340.04;124092;1099;104299;-80
2022/12/10 09:56:32;;;;;;;31.70;17.83;;;;;;;10.14;100.00;99329.58;124259;1099;104364;-80
2022/12/10 09:59:13;;;;;;;33.60;18.13;;;;;;;10.15;100.00;99328.73;124508;1099;104306;-80
2022/12/10 10:01:46;;;;;;;32.37;16.90;;;;;;;10.17;100.00;99321.78;123890;1099;104456;-83
2022/12/10 10:04:18;;;;;;;35.03;18.60;;;;;;;10.15;100.00;99328.73;124055;1099;104287;-80
2022/12/10 10:06:49;;;;;;;36.33;19.50;;;;;;;10.15;100.00;99323.50;124111;1099;104696;-80
2022/12/10 10:09:21;;;;;;;37.93;18.80;;;;;;;10.16;100.00;99326.15;124278;1099;104351;-80
2022/12/10 10:11:52;;;;;;;35.43;18.67;;;;;;;10.14;100.00;99321.72;123976;1098;104411;-79
2022/12/10 10:14:28;;;;;;;36.73;19.70;;;;;;;10.15;100.00;99316.50;123918;1099;104213;-78
2022/12/10 10:17:04;;;;;;;36.37;17.93;;;;;;;10.17;100.00;99316.53;124113;1099;104357;-80
2022/12/10 10:19:39;;;;;;;36.17;19.67;;;;;;;10.15;100.00;99313.02;124045;1099;104342;-79
2022/12/10 10:22:12;;;;;;;39.50;20.00;;;;;;;10.13;100.00;99310.36;124249;1098;104248;-80
2022/12/10 10:24:46;;;;;;;37.53;19.05;;;;;;;10.14;100.00;99308.61;124126;1098;104291;-80
2022/12/10 10:27:19;;;;;;;38.65;19.57;;;;;;;10.11;100.00;99301.56;124272;1098;104248;-79
2022/12/10 10:29:52;;;;;;;38.08;19.80;;;;;;;10.10;100.00;99302.44;124138;1099;104348;-80
2022/12/10 10:32:25;;;;;;;38.97;21.07;;;;;;;10.10;100.00;99299.82;123936;1099;104287;-80
2022/12/10 10:34:59;;;;;;;39.30;20.70;;;;;;;10.09;100.00;99298.05;124302;1099;104194;-81
2022/12/10 10:37:40;;;;;;;33.98;19.17;;;;;;;10.10;100.00;99284.09;123982;1099;104267;-80
2022/12/10 10:40:25;;;;;;;35.85;19.15;;;;;;;10.12;100.00;99287.61;124082;1099;104405;-80
2022/12/10 10:42:59;;;;;;;39.63;20.83;;;;;;;10.14;100.00;99290.27;124283;1099;104264;-80
2022/12/10 10:45:42;;;;;;;38.42;18.65;;;;;;;10.12;100.00;99292.86;124075;1099;104331;-80
2022/12/10 10:48:17;;;;;;;38.43;19.17;;;;;;;10.12;100.00;99292.86;123952;1099;104387;-80
2022/12/10 10:50:51;;;;;;;33.47;19.03;;;;;;;10.13;100.00;99291.11;124289;1099;104347;-80
2022/12/10 10:53:42;;;;;;;38.08;20.10;;;;;;;10.10;100.00;99289.34;123844;1099;104231;-81
2022/12/10 10:56:17;;;;;;;36.83;20.43;;;;;;;10.08;100.00;99302.41;123914;1098;104267;-80
2022/12/10 10:58:54;;;;;;;35.43;19.00;;;;;;;10.11;100.00;99291.08;123950;1099;104271;-80
2022/12/10 11:01:28;;;;;;;39.83;20.37;;;;;;;10.10;100.00;99299.82;124034;1099;104710;-80
2022/12/10 11:04:00;;;;;;;35.83;19.60;;;;;;;10.11;100.00;99300.69;124065;1099;104258;-79
2022/12/10 11:06:32;;;;;;;38.47;20.53;;;;;;;10.12;100.00;99291.98;124090;1099;104304;-82
2022/12/10 11:09:05;;;;;;;39.97;19.83;;;;;;;10.13;100.00;99286.77;124173;1099;104322;-80
2022/12/10 11:11:41;;;;;;;36.42;20.27;;;;;;;10.17;100.00;99298.19;124068;1099;104360;-81
2022/12/10 11:14:25;;;;;;;34.03;19.00;;;;;;;10.20;100.00;99298.24;123974;1099;104268;-80
2022/12/10 11:17:04;;;;;;;35.60;18.57;;;;;;;10.19;100.00;99299.08;123895;1099;102070;-80
2022/12/10 11:19:35;;;;;;;44.20;20.20;;;;;;;10.17;100.00;99298.19;123994;1099;104370;-80
2022/12/10 11:22:21;;;;;;;40.40;20.37;;;;;;;10.16;100.00;99288.54;123922;1099;104354;-81
2022/12/10 11:24:53;;;;;;;36.87;19.90;;;;;;;10.12;100.00;99278.88;124226;1099;104402;-80
2022/12/10 11:27:38;;;;;;;36.77;20.60;;;;;;;10.10;100.00;99272.70;124209;1099;104284;-80
2022/12/10 11:30:15;;;;;;;35.30;19.63;;;;;;;10.08;100.00;99272.67;124220;1099;104268;-81
2022/12/10 11:33:16;;;;;;;37.50;20.60;;;;;;;10.03;100.00;99267.35;124212;1099;104274;-81
2022/12/10 11:35:55;;;;;;;39.60;20.40;;;;;;;10.00;100.00;99269.95;124308;1099;104255;-80
2022/12/10 11:38:30;;;;;;;41.40;20.77;;;;;;;10.00;100.00;99266.42;124187;1099;104214;-82
2022/12/10 11:41:11;;;;;;;44.03;22.37;;;;;;;9.98;100.00;99268.14;124134;1099;104268;-80
2022/12/10 11:43:54;;;;;;;40.47;21.20;;;;;;;9.97;100.00;99282.99;124082;1099;102012;-79